sensor_id;sensor_type;location;lat;lon;timestamp;temperature;humidity
16102;DHT22;56411;52.964;10.540;2024-02-28T00:00:11;3.10;99.90
16102;DHT22;56411;52.964;10.540;2024-02-28T00:02:39;3.10;99.90
16102;DHT22;56411;52.964;10.540;2024-02-28T00:05:07;3.10;99.90
16102;DHT22;56411;52.964;10.540;2024-02-28T00:07:35;3.20;99.90
16102;DHT22;56411;52.964;10.540;2024-02-28T00:10:03;3.20;99.90
16102;DHT22;56411;52.964;10.540;2024-02-28T00:12:31;3.20;99.90
16102;DHT22;56411;52.964;10.540;2024-02-28T00:14:59;3.20;99.90
16102;DHT22;56411;52.964;10.540;2024-02-28T00:17:27;3.20;99.90
16102;DHT22;56411;52.964;10.540;2024-02-28T00:19:54;3.20;99.90
16102;DHT22;56411;52.964;10.540;2024-02-28T00:22:22;3.20;99.90
16102;DHT22;56411;52.964;10.540;2024-02-28T00:24:51;3.20;99.90
16102;DHT22;56411;52.964;10.540;2024-02-28T00:27:18;3.20;99.90
16102;DHT22;56411;52.964;10.540;2024-02-28T00:29:45;3.20;99.90
16102;DHT22;56411;52.964;10.540;2024-02-28T00:32:12;3.20;99.90
16102;DHT22;56411;52.964;10.540;2024-02-28T00:34:39;3.30;99.90
16102;DHT22;56411;52.964;10.540;2024-02-28T00:37:06;3.20;99.90
16102;DHT22;56411;52.964;10.540;2024-02-28T00:39:34;3.20;99.90
16102;DHT22;56411;52.964;10.540;2024-02-28T00:42:03;3.20;99.90
16102;DHT22;56411;52.964;10.540;2024-02-28T00:44:37;3.20;99.90
16102;DHT22;56411;52.964;10.540;2024-02-28T00:47:08;3.20;99.90
16102;DHT22;56411;52.964;10.540;2024-02-28T00:49:35;3.20;99.90
16102;DHT22;56411;52.964;10.540;2024-02-28T00:52:05;3.10;99.90
16102;DHT22;56411;52.964;10.540;2024-02-28T00:54:32;3.10;99.90
16102;DHT22;56411;52.964;10.540;2024-02-28T00:57:13;3.10;99.90
16102;DHT22;56411;52.964;10.540;2024-02-28T00:59:41;3.10;99.90
16102;DHT22;56411;52.964;10.540;2024-02-28T01:02:10;3.10;99.90
16102;DHT22;56411;52.964;10.540;2024-02-28T01:04:37;3.00;99.90
16102;DHT22;56411;52.964;10.540;2024-02-28T01:07:04;2.90;99.90
16102;DHT22;56411;52.964;10.540;2024-02-28T01:09:31;2.90;99.90
16102;DHT22;56411;52.964;10.540;2024-02-28T01:15:23;2.90;99.90
16102;DHT22;56411;52.964;10.540;2024-02-28T01:18:00;2.90;99.90
16102;DHT22;56411;52.964;10.540;2024-02-28T01:20:28;2.90;99.90
16102;DHT22;56411;52.964;10.540;2024-02-28T01:22:56;2.80;99.90
16102;DHT22;56411;52.964;10.540;2024-02-28T01:25:23;2.80;99.90
16102;DHT22;56411;52.964;10.540;2024-02-28T01:27:50;2.80;99.90
16102;DHT22;56411;52.964;10.540;2024-02-28T01:30:17;2.80;99.90
16102;DHT22;56411;52.964;10.540;2024-02-28T01:32:49;2.70;99.90
16102;DHT22;56411;52.964;10.540;2024-02-28T01:35:16;2.70;99.90
16102;DHT22;56411;52.964;10.540;2024-02-28T01:37:43;2.70;99.90
16102;DHT22;56411;52.964;10.540;2024-02-28T01:40:11;2.70;99.90
16102;DHT22;56411;52.964;10.540;2024-02-28T01:42:39;2.70;99.90
16102;DHT22;56411;52.964;10.540;2024-02-28T01:45:06;2.70;99.90
16102;DHT22;56411;52.964;10.540;2024-02-28T01:47:34;2.60;99.90
16102;DHT22;56411;52.964;10.540;2024-02-28T01:50:05;2.50;99.90
16102;DHT22;56411;52.964;10.540;2024-02-28T01:52:32;2.50;99.90
16102;DHT22;56411;52.964;10.540;2024-02-28T01:55:00;2.50;99.90
16102;DHT22;56411;52.964;10.540;2024-02-28T01:57:28;2.50;99.90
16102;DHT22;56411;52.964;10.540;2024-02-28T01:59:59;2.50;99.90
16102;DHT22;56411;52.964;10.540;2024-02-28T02:02:26;2.60;99.90
16102;DHT22;56411;52.964;10.540;2024-02-28T02:04:53;2.60;99.90
16102;DHT22;56411;52.964;10.540;2024-02-28T02:07:25;2.60;99.90
16102;DHT22;56411;52.964;10.540;2024-02-28T02:09:52;2.60;99.90
16102;DHT22;56411;52.964;10.540;2024-02-28T02:12:19;2.60;99.90
16102;DHT22;56411;52.964;10.540;2024-02-28T02:14:47;2.60;99.90
16102;DHT22;56411;52.964;10.540;2024-02-28T02:17:14;2.60;99.90
16102;DHT22;56411;52.964;10.540;2024-02-28T02:19:42;2.60;99.90
16102;DHT22;56411;52.964;10.540;2024-02-28T02:22:10;2.60;99.90
16102;DHT22;56411;52.964;10.540;2024-02-28T02:24:42;2.60;99.90
16102;DHT22;56411;52.964;10.540;2024-02-28T02:27:14;2.60;99.90
16102;DHT22;56411;52.964;10.540;2024-02-28T02:29:44;2.50;99.90
16102;DHT22;56411;52.964;10.540;2024-02-28T02:35:33;2.40;99.90
16102;DHT22;56411;52.964;10.540;2024-02-28T02:38:00;2.40;99.90
16102;DHT22;56411;52.964;10.540;2024-02-28T02:40:29;2.30;99.90
16102;DHT22;56411;52.964;10.540;2024-02-28T02:42:56;2.20;99.90
16102;DHT22;56411;52.964;10.540;2024-02-28T02:45:24;2.20;99.90
16102;DHT22;56411;52.964;10.540;2024-02-28T02:47:51;2.20;99.90
16102;DHT22;56411;52.964;10.540;2024-02-28T02:50:18;2.10;99.90
16102;DHT22;56411;52.964;10.540;2024-02-28T02:52:48;2.20;99.90
16102;DHT22;56411;52.964;10.540;2024-02-28T02:55:15;2.10;99.90
16102;DHT22;56411;52.964;10.540;2024-02-28T02:57:44;2.10;99.90
16102;DHT22;56411;52.964;10.540;2024-02-28T03:00:12;2.10;99.90
16102;DHT22;56411;52.964;10.540;2024-02-28T03:02:39;2.10;99.90
16102;DHT22;56411;52.964;10.540;2024-02-28T03:05:07;2.10;99.90
16102;DHT22;56411;52.964;10.540;2024-02-28T03:07:35;2.10;99.90
16102;DHT22;56411;52.964;10.540;2024-02-28T03:10:03;2.10;99.90
16102;DHT22;56411;52.964;10.540;2024-02-28T03:12:37;2.10;99.90
16102;DHT22;56411;52.964;10.540;2024-02-28T03:15:07;2.20;99.90
16102;DHT22;56411;52.964;10.540;2024-02-28T03:17:34;2.20;99.90
16102;DHT22;56411;52.964;10.540;2024-02-28T03:20:02;2.20;99.90
16102;DHT22;56411;52.964;10.540;2024-02-28T03:22:31;2.20;99.90
16102;DHT22;56411;52.964;10.540;2024-02-28T03:25:25;2.10;99.90
16102;DHT22;56411;52.964;10.540;2024-02-28T03:27:53;2.10;99.90
16102;DHT22;56411;52.964;10.540;2024-02-28T03:30:22;2.10;99.90
16102;DHT22;56411;52.964;10.540;2024-02-28T03:32:49;2.10;99.90
16102;DHT22;56411;52.964;10.540;2024-02-28T03:35:17;2.10;99.90
16102;DHT22;56411;52.964;10.540;2024-02-28T03:37:44;2.10;99.90
16102;DHT22;56411;52.964;10.540;2024-02-28T03:40:11;2.10;99.90
16102;DHT22;56411;52.964;10.540;2024-02-28T03:42:40;2.10;99.90
16102;DHT22;56411;52.964;10.540;2024-02-28T03:45:07;2.10;99.90
16102;DHT22;56411;52.964;10.540;2024-02-28T03:47:36;2.10;99.90
16102;DHT22;56411;52.964;10.540;2024-02-28T03:50:04;2.00;99.90
16102;DHT22;56411;52.964;10.540;2024-02-28T03:52:31;2.00;99.90
16102;DHT22;56411;52.964;10.540;2024-02-28T03:54:59;2.00;99.90
16102;DHT22;56411;52.964;10.540;2024-02-28T03:57:27;1.90;99.90
16102;DHT22;56411;52.964;10.540;2024-02-28T03:59:54;1.90;99.90
16102;DHT22;56411;52.964;10.540;2024-02-28T04:02:23;1.90;99.90
16102;DHT22;56411;52.964;10.540;2024-02-28T04:04:52;1.80;99.90
16102;DHT22;56411;52.964;10.540;2024-02-28T04:07:20;1.80;99.90
16102;DHT22;56411;52.964;10.540;2024-02-28T04:09:48;1.90;99.90
16102;DHT22;56411;52.964;10.540;2024-02-28T04:12:16;1.90;99.90
16102;DHT22;56411;52.964;10.540;2024-02-28T04:14:43;1.90;99.90
16102;DHT22;56411;52.964;10.540;2024-02-28T04:17:10;2.00;99.90
16102;DHT22;56411;52.964;10.540;2024-02-28T04:19:37;1.90;99.90
16102;DHT22;56411;52.964;10.540;2024-02-28T04:22:07;1.90;99.90
16102;DHT22;56411;52.964;10.540;2024-02-28T04:24:40;1.80;99.90
16102;DHT22;56411;52.964;10.540;2024-02-28T04:27:11;1.80;99.90
16102;DHT22;56411;52.964;10.540;2024-02-28T04:29:38;1.80;99.90
16102;DHT22;56411;52.964;10.540;2024-02-28T04:32:06;1.80;99.90
16102;DHT22;56411;52.964;10.540;2024-02-28T04:34:33;1.80;99.90
16102;DHT22;56411;52.964;10.540;2024-02-28T04:37:00;1.80;99.90
16102;DHT22;56411;52.964;10.540;2024-02-28T04:39:29;1.80;99.90
16102;DHT22;56411;52.964;10.540;2024-02-28T04:41:56;1.80;99.90
16102;DHT22;56411;52.964;10.540;2024-02-28T04:44:23;1.80;99.90
16102;DHT22;56411;52.964;10.540;2024-02-28T04:46:51;1.80;99.90
16102;DHT22;56411;52.964;10.540;2024-02-28T04:49:18;1.80;99.90
16102;DHT22;56411;52.964;10.540;2024-02-28T04:51:46;1.80;99.90
16102;DHT22;56411;52.964;10.540;2024-02-28T04:54:13;1.80;99.90
16102;DHT22;56411;52.964;10.540;2024-02-28T04:56:45;1.70;99.90
16102;DHT22;56411;52.964;10.540;2024-02-28T04:59:13;1.70;99.90
16102;DHT22;56411;52.964;10.540;2024-02-28T05:01:40;1.70;99.90
16102;DHT22;56411;52.964;10.540;2024-02-28T05:04:09;1.70;99.90
16102;DHT22;56411;52.964;10.540;2024-02-28T05:06:36;1.80;99.90
16102;DHT22;56411;52.964;10.540;2024-02-28T05:09:03;1.80;99.90
16102;DHT22;56411;52.964;10.540;2024-02-28T05:11:31;1.80;99.90
16102;DHT22;56411;52.964;10.540;2024-02-28T05:13:59;1.80;99.90
16102;DHT22;56411;52.964;10.540;2024-02-28T05:19:49;1.90;99.90
16102;DHT22;56411;52.964;10.540;2024-02-28T05:22:20;1.80;99.90
16102;DHT22;56411;52.964;10.540;2024-02-28T05:24:48;1.80;99.90
16102;DHT22;56411;52.964;10.540;2024-02-28T05:27:16;1.80;99.90
16102;DHT22;56411;52.964;10.540;2024-02-28T05:29:45;1.80;99.90
16102;DHT22;56411;52.964;10.540;2024-02-28T05:32:12;1.80;99.90
16102;DHT22;56411;52.964;10.540;2024-02-28T05:34:39;1.70;99.90
16102;DHT22;56411;52.964;10.540;2024-02-28T05:37:16;1.70;99.90
16102;DHT22;56411;52.964;10.540;2024-02-28T05:39:49;1.60;99.90
16102;DHT22;56411;52.964;10.540;2024-02-28T05:42:24;1.60;99.90
16102;DHT22;56411;52.964;10.540;2024-02-28T05:45:09;1.70;99.90
16102;DHT22;56411;52.964;10.540;2024-02-28T05:47:49;1.60;99.90
16102;DHT22;56411;52.964;10.540;2024-02-28T05:50:16;1.60;99.90
16102;DHT22;56411;52.964;10.540;2024-02-28T05:52:44;1.70;99.90
16102;DHT22;56411;52.964;10.540;2024-02-28T05:55:12;1.70;99.90
16102;DHT22;56411;52.964;10.540;2024-02-28T05:57:39;1.70;99.90
16102;DHT22;56411;52.964;10.540;2024-02-28T06:00:09;1.80;99.90
16102;DHT22;56411;52.964;10.540;2024-02-28T06:02:37;1.80;99.90
16102;DHT22;56411;52.964;10.540;2024-02-28T06:05:05;1.80;99.90
16102;DHT22;56411;52.964;10.540;2024-02-28T06:07:32;1.70;99.90
16102;DHT22;56411;52.964;10.540;2024-02-28T06:10:04;1.80;99.90
16102;DHT22;56411;52.964;10.540;2024-02-28T06:12:31;1.80;99.90
16102;DHT22;56411;52.964;10.540;2024-02-28T06:14:58;1.80;99.90
16102;DHT22;56411;52.964;10.540;2024-02-28T06:17:27;1.80;99.90
16102;DHT22;56411;52.964;10.540;2024-02-28T06:19:54;1.80;99.90
16102;DHT22;56411;52.964;10.540;2024-02-28T06:22:21;1.80;99.90
16102;DHT22;56411;52.964;10.540;2024-02-28T06:24:49;1.80;99.90
16102;DHT22;56411;52.964;10.540;2024-02-28T06:27:16;1.90;99.90
16102;DHT22;56411;52.964;10.540;2024-02-28T06:29:43;1.80;99.90
16102;DHT22;56411;52.964;10.540;2024-02-28T06:32:10;1.80;99.90
16102;DHT22;56411;52.964;10.540;2024-02-28T06:34:38;1.90;99.90
16102;DHT22;56411;52.964;10.540;2024-02-28T06:37:05;1.90;99.90
16102;DHT22;56411;52.964;10.540;2024-02-28T06:39:33;1.90;99.90
16102;DHT22;56411;52.964;10.540;2024-02-28T06:42:00;1.90;99.90
16102;DHT22;56411;52.964;10.540;2024-02-28T06:44:27;2.00;99.90
16102;DHT22;56411;52.964;10.540;2024-02-28T06:46:54;1.90;99.90
16102;DHT22;56411;52.964;10.540;2024-02-28T06:49:21;2.00;99.90
16102;DHT22;56411;52.964;10.540;2024-02-28T06:51:50;2.00;99.90
16102;DHT22;56411;52.964;10.540;2024-02-28T06:54:17;2.00;99.90
16102;DHT22;56411;52.964;10.540;2024-02-28T06:56:44;2.00;99.90
16102;DHT22;56411;52.964;10.540;2024-02-28T06:59:11;2.00;99.90
16102;DHT22;56411;52.964;10.540;2024-02-28T07:01:38;2.00;99.90
16102;DHT22;56411;52.964;10.540;2024-02-28T07:04:05;2.00;99.90
16102;DHT22;56411;52.964;10.540;2024-02-28T07:06:32;2.00;99.90
16102;DHT22;56411;52.964;10.540;2024-02-28T07:09:01;2.00;99.90
16102;DHT22;56411;52.964;10.540;2024-02-28T07:11:28;2.00;99.90
16102;DHT22;56411;52.964;10.540;2024-02-28T07:13:56;2.00;99.90
16102;DHT22;56411;52.964;10.540;2024-02-28T07:16:27;2.00;99.90
16102;DHT22;56411;52.964;10.540;2024-02-28T07:18:54;2.00;99.90
16102;DHT22;56411;52.964;10.540;2024-02-28T07:21:21;2.00;99.90
16102;DHT22;56411;52.964;10.540;2024-02-28T07:23:48;2.10;99.90
16102;DHT22;56411;52.964;10.540;2024-02-28T07:26:17;2.10;99.90
16102;DHT22;56411;52.964;10.540;2024-02-28T07:28:44;2.20;99.90
16102;DHT22;56411;52.964;10.540;2024-02-28T07:31:15;2.20;99.90
16102;DHT22;56411;52.964;10.540;2024-02-28T07:33:42;2.10;99.90
16102;DHT22;56411;52.964;10.540;2024-02-28T07:36:09;2.10;99.90
16102;DHT22;56411;52.964;10.540;2024-02-28T07:38:37;2.10;99.90
16102;DHT22;56411;52.964;10.540;2024-02-28T07:41:04;2.10;99.90
16102;DHT22;56411;52.964;10.540;2024-02-28T07:43:34;2.20;99.90
16102;DHT22;56411;52.964;10.540;2024-02-28T07:46:06;2.20;99.90
16102;DHT22;56411;52.964;10.540;2024-02-28T07:48:34;2.30;99.90
16102;DHT22;56411;52.964;10.540;2024-02-28T07:51:03;2.40;99.90
16102;DHT22;56411;52.964;10.540;2024-02-28T07:53:31;2.40;99.90
16102;DHT22;56411;52.964;10.540;2024-02-28T07:55:58;2.50;99.90
16102;DHT22;56411;52.964;10.540;2024-02-28T07:58:25;2.50;99.90
16102;DHT22;56411;52.964;10.540;2024-02-28T08:00:54;2.50;99.90
16102;DHT22;56411;52.964;10.540;2024-02-28T08:03:21;2.60;99.90
16102;DHT22;56411;52.964;10.540;2024-02-28T08:05:48;2.60;99.90
16102;DHT22;56411;52.964;10.540;2024-02-28T08:08:15;2.70;99.90
16102;DHT22;56411;52.964;10.540;2024-02-28T08:10:42;2.70;99.90
16102;DHT22;56411;52.964;10.540;2024-02-28T08:13:11;2.70;99.90
16102;DHT22;56411;52.964;10.540;2024-02-28T08:15:39;2.80;99.90
16102;DHT22;56411;52.964;10.540;2024-02-28T08:18:07;2.90;99.90
16102;DHT22;56411;52.964;10.540;2024-02-28T08:20:36;2.90;99.90
16102;DHT22;56411;52.964;10.540;2024-02-28T08:23:04;3.00;99.90
16102;DHT22;56411;52.964;10.540;2024-02-28T08:25:31;3.00;99.90
16102;DHT22;56411;52.964;10.540;2024-02-28T08:27:58;3.00;99.90
16102;DHT22;56411;52.964;10.540;2024-02-28T08:30:25;3.10;99.90
16102;DHT22;56411;52.964;10.540;2024-02-28T08:32:53;3.10;99.90
16102;DHT22;56411;52.964;10.540;2024-02-28T08:35:21;3.20;99.90
16102;DHT22;56411;52.964;10.540;2024-02-28T08:37:49;3.20;99.90
16102;DHT22;56411;52.964;10.540;2024-02-28T08:40:16;3.30;99.90
16102;DHT22;56411;52.964;10.540;2024-02-28T08:42:43;3.40;99.90
16102;DHT22;56411;52.964;10.540;2024-02-28T08:45:11;3.60;99.90
16102;DHT22;56411;52.964;10.540;2024-02-28T08:49:07;3.70;99.90
16102;DHT22;56411;52.964;10.540;2024-02-28T08:51:21;3.70;99.90
16102;DHT22;56411;52.964;10.540;2024-02-28T08:53:48;3.90;99.90
16102;DHT22;56411;52.964;10.540;2024-02-28T08:56:17;4.00;99.90
16102;DHT22;56411;52.964;10.540;2024-02-28T08:58:45;4.10;99.90
16102;DHT22;56411;52.964;10.540;2024-02-28T09:01:14;4.30;99.90
16102;DHT22;56411;52.964;10.540;2024-02-28T09:03:42;4.50;99.90
16102;DHT22;56411;52.964;10.540;2024-02-28T09:06:23;4.70;99.90
16102;DHT22;56411;52.964;10.540;2024-02-28T09:08:50;4.80;99.90
16102;DHT22;56411;52.964;10.540;2024-02-28T09:11:17;4.90;99.90
16102;DHT22;56411;52.964;10.540;2024-02-28T09:13:45;4.90;99.90
16102;DHT22;56411;52.964;10.540;2024-02-28T09:16:12;5.00;99.90
16102;DHT22;56411;52.964;10.540;2024-02-28T09:18:39;5.10;99.90
16102;DHT22;56411;52.964;10.540;2024-02-28T09:21:08;5.10;99.90
16102;DHT22;56411;52.964;10.540;2024-02-28T09:23:36;5.00;99.90
16102;DHT22;56411;52.964;10.540;2024-02-28T09:26:04;5.00;99.90
16102;DHT22;56411;52.964;10.540;2024-02-28T09:28:32;5.10;99.90
16102;DHT22;56411;52.964;10.540;2024-02-28T09:30:59;5.20;99.90
16102;DHT22;56411;52.964;10.540;2024-02-28T09:33:26;5.10;99.90
16102;DHT22;56411;52.964;10.540;2024-02-28T09:35:54;5.00;99.90
16102;DHT22;56411;52.964;10.540;2024-02-28T09:38:21;5.10;99.90
16102;DHT22;56411;52.964;10.540;2024-02-28T09:40:50;5.00;99.90
16102;DHT22;56411;52.964;10.540;2024-02-28T09:43:23;5.00;99.90
16102;DHT22;56411;52.964;10.540;2024-02-28T09:45:54;5.00;99.90
16102;DHT22;56411;52.964;10.540;2024-02-28T09:48:24;5.00;99.90
16102;DHT22;56411;52.964;10.540;2024-02-28T09:50:52;5.10;99.90
16102;DHT22;56411;52.964;10.540;2024-02-28T09:53:19;5.20;99.90
16102;DHT22;56411;52.964;10.540;2024-02-28T09:55:47;5.30;99.90
16102;DHT22;56411;52.964;10.540;2024-02-28T09:58:17;5.40;99.90
16102;DHT22;56411;52.964;10.540;2024-02-28T10:00:46;5.40;99.90
16102;DHT22;56411;52.964;10.540;2024-02-28T10:03:17;5.30;99.90
16102;DHT22;56411;52.964;10.540;2024-02-28T10:05:45;5.20;99.90
16102;DHT22;56411;52.964;10.540;2024-02-28T10:08:12;5.20;99.90
16102;DHT22;56411;52.964;10.540;2024-02-28T10:10:45;5.10;99.90
16102;DHT22;56411;52.964;10.540;2024-02-28T10:13:13;5.00;99.90
16102;DHT22;56411;52.964;10.540;2024-02-28T10:15:42;5.10;99.90
16102;DHT22;56411;52.964;10.540;2024-02-28T10:18:12;5.10;99.90
16102;DHT22;56411;52.964;10.540;2024-02-28T10:20:53;5.00;99.90
16102;DHT22;56411;52.964;10.540;2024-02-28T10:23:37;5.10;99.90
16102;DHT22;56411;52.964;10.540;2024-02-28T10:26:08;5.30;99.90
16102;DHT22;56411;52.964;10.540;2024-02-28T10:28:36;5.40;99.90
16102;DHT22;56411;52.964;10.540;2024-02-28T10:31:05;5.70;99.90
16102;DHT22;56411;52.964;10.540;2024-02-28T10:33:33;5.60;99.90
16102;DHT22;56411;52.964;10.540;2024-02-28T10:36:02;5.60;99.90
16102;DHT22;56411;52.964;10.540;2024-02-28T10:38:31;5.40;99.90
16102;DHT22;56411;52.964;10.540;2024-02-28T10:41:00;5.50;99.90
16102;DHT22;56411;52.964;10.540;2024-02-28T10:43:28;5.60;99.90
16102;DHT22;56411;52.964;10.540;2024-02-28T10:45:57;5.90;99.90
16102;DHT22;56411;52.964;10.540;2024-02-28T10:48:27;6.30;99.90
16102;DHT22;56411;52.964;10.540;2024-02-28T10:50:55;6.30;99.90
16102;DHT22;56411;52.964;10.540;2024-02-28T10:53:27;6.50;99.90
16102;DHT22;56411;52.964;10.540;2024-02-28T10:56:03;6.70;99.90
16102;DHT22;56411;52.964;10.540;2024-02-28T10:58:36;6.90;99.90
16102;DHT22;56411;52.964;10.540;2024-02-28T11:01:07;7.00;99.90
16102;DHT22;56411;52.964;10.540;2024-02-28T11:03:51;7.10;99.90
16102;DHT22;56411;52.964;10.540;2024-02-28T11:06:21;7.50;99.90
16102;DHT22;56411;52.964;10.540;2024-02-28T11:08:54;7.50;99.90
16102;DHT22;56411;52.964;10.540;2024-02-28T11:11:22;7.40;99.90
16102;DHT22;56411;52.964;10.540;2024-02-28T11:13:53;7.50;99.90
16102;DHT22;56411;52.964;10.540;2024-02-28T11:16:27;7.60;99.90
16102;DHT22;56411;52.964;10.540;2024-02-28T11:19:01;7.80;99.90
16102;DHT22;56411;52.964;10.540;2024-02-28T11:21:33;8.00;99.90
16102;DHT22;56411;52.964;10.540;2024-02-28T11:24:04;8.20;99.90
16102;DHT22;56411;52.964;10.540;2024-02-28T11:26:31;8.20;99.90
16102;DHT22;56411;52.964;10.540;2024-02-28T11:28:59;8.40;99.90
16102;DHT22;56411;52.964;10.540;2024-02-28T11:31:26;8.10;99.90
16102;DHT22;56411;52.964;10.540;2024-02-28T11:33:54;7.90;99.90
16102;DHT22;56411;52.964;10.540;2024-02-28T11:36:29;7.90;99.90
16102;DHT22;56411;52.964;10.540;2024-02-28T11:38:57;7.90;99.90
16102;DHT22;56411;52.964;10.540;2024-02-28T11:41:26;7.80;99.90
16102;DHT22;56411;52.964;10.540;2024-02-28T11:43:54;8.00;99.90
16102;DHT22;56411;52.964;10.540;2024-02-28T11:46:21;8.20;99.90
16102;DHT22;56411;52.964;10.540;2024-02-28T11:48:52;8.30;99.90
16102;DHT22;56411;52.964;10.540;2024-02-28T11:51:19;8.50;99.90
16102;DHT22;56411;52.964;10.540;2024-02-28T11:53:50;8.70;99.90
16102;DHT22;56411;52.964;10.540;2024-02-28T11:56:18;8.70;99.90
16102;DHT22;56411;52.964;10.540;2024-02-28T11:58:50;8.70;99.90
16102;DHT22;56411;52.964;10.540;2024-02-28T12:01:18;9.10;99.90
16102;DHT22;56411;52.964;10.540;2024-02-28T12:03:46;9.70;99.90
16102;DHT22;56411;52.964;10.540;2024-02-28T12:06:13;10.30;99.90
16102;DHT22;56411;52.964;10.540;2024-02-28T12:11:47;9.30;99.90
16102;DHT22;56411;52.964;10.540;2024-02-28T12:14:22;8.80;99.90
16102;DHT22;56411;52.964;10.540;2024-02-28T12:16:52;8.70;99.90
16102;DHT22;56411;52.964;10.540;2024-02-28T12:19:19;8.70;99.90
16102;DHT22;56411;52.964;10.540;2024-02-28T12:21:50;8.70;99.90
16102;DHT22;56411;52.964;10.540;2024-02-28T12:24:30;8.90;99.90
16102;DHT22;56411;52.964;10.540;2024-02-28T12:26:59;9.00;99.90
16102;DHT22;56411;52.964;10.540;2024-02-28T12:29:26;9.20;99.90
16102;DHT22;56411;52.964;10.540;2024-02-28T12:31:54;9.10;99.90
16102;DHT22;56411;52.964;10.540;2024-02-28T12:34:21;9.10;99.90
16102;DHT22;56411;52.964;10.540;2024-02-28T12:36:48;9.20;99.90
16102;DHT22;56411;52.964;10.540;2024-02-28T12:39:16;9.10;99.90
16102;DHT22;56411;52.964;10.540;2024-02-28T12:41:44;9.10;99.90
16102;DHT22;56411;52.964;10.540;2024-02-28T12:44:13;9.00;99.90
16102;DHT22;56411;52.964;10.540;2024-02-28T12:46:40;8.90;99.90
16102;DHT22;56411;52.964;10.540;2024-02-28T12:49:08;9.00;99.90
16102;DHT22;56411;52.964;10.540;2024-02-28T12:51:39;9.20;99.90
16102;DHT22;56411;52.964;10.540;2024-02-28T12:54:07;9.20;99.90
16102;DHT22;56411;52.964;10.540;2024-02-28T12:56:35;9.30;99.90
16102;DHT22;56411;52.964;10.540;2024-02-28T12:59:02;9.40;99.90
16102;DHT22;56411;52.964;10.540;2024-02-28T13:01:32;9.40;99.90
16102;DHT22;56411;52.964;10.540;2024-02-28T13:04:06;9.60;99.90
16102;DHT22;56411;52.964;10.540;2024-02-28T13:06:38;9.70;99.90
16102;DHT22;56411;52.964;10.540;2024-02-28T13:09:07;9.60;99.90
16102;DHT22;56411;52.964;10.540;2024-02-28T13:11:38;9.80;99.90
16102;DHT22;56411;52.964;10.540;2024-02-28T13:14:05;10.10;99.90
16102;DHT22;56411;52.964;10.540;2024-02-28T13:16:35;10.20;99.90
16102;DHT22;56411;52.964;10.540;2024-02-28T13:19:04;10.20;99.90
16102;DHT22;56411;52.964;10.540;2024-02-28T13:21:31;10.60;99.90
16102;DHT22;56411;52.964;10.540;2024-02-28T13:24:00;11.00;99.90
16102;DHT22;56411;52.964;10.540;2024-02-28T13:26:31;11.50;99.90
16102;DHT22;56411;52.964;10.540;2024-02-28T13:29:04;11.60;99.90
16102;DHT22;56411;52.964;10.540;2024-02-28T13:34:59;12.10;99.90
16102;DHT22;56411;52.964;10.540;2024-02-28T13:38:06;13.30;99.90
16102;DHT22;56411;52.964;10.540;2024-02-28T13:40:45;13.80;99.90
16102;DHT22;56411;52.964;10.540;2024-02-28T13:43:30;13.90;99.90
16102;DHT22;56411;52.964;10.540;2024-02-28T13:45:58;14.10;99.90
16102;DHT22;56411;52.964;10.540;2024-02-28T13:48:27;14.60;99.90
16102;DHT22;56411;52.964;10.540;2024-02-28T13:50:58;14.40;99.90
16102;DHT22;56411;52.964;10.540;2024-02-28T13:53:26;14.60;99.90
16102;DHT22;56411;52.964;10.540;2024-02-28T13:55:53;14.60;99.90
16102;DHT22;56411;52.964;10.540;2024-02-28T13:58:20;14.90;99.90
16102;DHT22;56411;52.964;10.540;2024-02-28T14:00:47;15.40;99.90
16102;DHT22;56411;52.964;10.540;2024-02-28T14:03:15;15.30;99.90
16102;DHT22;56411;52.964;10.540;2024-02-28T14:05:42;15.50;99.90
16102;DHT22;56411;52.964;10.540;2024-02-28T14:08:11;15.80;99.90
16102;DHT22;56411;52.964;10.540;2024-02-28T14:14:01;16.30;99.90
16102;DHT22;56411;52.964;10.540;2024-02-28T14:16:30;15.40;99.90
16102;DHT22;56411;52.964;10.540;2024-02-28T14:18:58;15.30;99.90
16102;DHT22;56411;52.964;10.540;2024-02-28T14:21:26;15.10;99.90
16102;DHT22;56411;52.964;10.540;2024-02-28T14:30:43;13.20;99.90
16102;DHT22;56411;52.964;10.540;2024-02-28T14:33:11;12.10;99.90
16102;DHT22;56411;52.964;10.540;2024-02-28T14:39:04;10.80;99.90
16102;DHT22;56411;52.964;10.540;2024-02-28T14:41:41;10.20;99.90
16102;DHT22;56411;52.964;10.540;2024-02-28T14:44:10;9.90;99.90
16102;DHT22;56411;52.964;10.540;2024-02-28T14:46:42;9.90;99.90
16102;DHT22;56411;52.964;10.540;2024-02-28T14:49:12;9.90;99.90
16102;DHT22;56411;52.964;10.540;2024-02-28T14:54:57;9.80;99.90
16102;DHT22;56411;52.964;10.540;2024-02-28T14:57:25;9.60;99.90
16102;DHT22;56411;52.964;10.540;2024-02-28T14:59:52;9.40;99.90
16102;DHT22;56411;52.964;10.540;2024-02-28T15:02:22;9.20;99.90
16102;DHT22;56411;52.964;10.540;2024-02-28T15:04:49;9.00;99.90
16102;DHT22;56411;52.964;10.540;2024-02-28T15:07:16;8.90;99.90
16102;DHT22;56411;52.964;10.540;2024-02-28T15:09:50;8.80;99.90
16102;DHT22;56411;52.964;10.540;2024-02-28T15:12:19;8.80;99.90
16102;DHT22;56411;52.964;10.540;2024-02-28T15:14:47;8.80;99.90
16102;DHT22;56411;52.964;10.540;2024-02-28T15:17:15;8.70;99.90
16102;DHT22;56411;52.964;10.540;2024-02-28T15:19:44;8.60;99.90
16102;DHT22;56411;52.964;10.540;2024-02-28T15:22:11;8.60;99.90
16102;DHT22;56411;52.964;10.540;2024-02-28T15:24:38;8.60;99.90
16102;DHT22;56411;52.964;10.540;2024-02-28T15:27:05;8.50;99.90
16102;DHT22;56411;52.964;10.540;2024-02-28T15:29:33;8.50;99.90
16102;DHT22;56411;52.964;10.540;2024-02-28T15:32:00;8.40;99.90
16102;DHT22;56411;52.964;10.540;2024-02-28T15:34:27;8.30;99.90
16102;DHT22;56411;52.964;10.540;2024-02-28T15:36:57;8.30;99.90
16102;DHT22;56411;52.964;10.540;2024-02-28T15:39:24;8.30;99.90
16102;DHT22;56411;52.964;10.540;2024-02-28T15:41:50;8.20;99.90
16102;DHT22;56411;52.964;10.540;2024-02-28T15:44:17;8.00;99.90
16102;DHT22;56411;52.964;10.540;2024-02-28T15:46:45;8.00;99.90
16102;DHT22;56411;52.964;10.540;2024-02-28T15:49:12;7.90;99.90
16102;DHT22;56411;52.964;10.540;2024-02-28T15:51:41;7.90;99.90
16102;DHT22;56411;52.964;10.540;2024-02-28T15:54:10;7.90;99.90
16102;DHT22;56411;52.964;10.540;2024-02-28T15:56:37;7.80;99.90
16102;DHT22;56411;52.964;10.540;2024-02-28T15:59:37;7.70;99.90
16102;DHT22;56411;52.964;10.540;2024-02-28T16:02:21;7.60;99.90
16102;DHT22;56411;52.964;10.540;2024-02-28T16:04:51;7.60;99.90
16102;DHT22;56411;52.964;10.540;2024-02-28T16:07:19;7.50;99.90
16102;DHT22;56411;52.964;10.540;2024-02-28T16:09:49;7.50;99.90
16102;DHT22;56411;52.964;10.540;2024-02-28T16:12:17;7.40;99.90
16102;DHT22;56411;52.964;10.540;2024-02-28T16:14:44;7.40;99.90